International Falls, Minnesota
Current Conditions -  °F | °C
As of 4:55 PM on Wednesday 22 Oct 2014 (Local Time) from KINL Reporting Station
Few Clouds Few Clouds  
Wind Chill: 61°   Ceiling: Unl
Heat Index: 61°   Visibility: 10mi
Dew Point: 43°   Wind: 8mph
Humidity: 52%   Direction: 190°S
Pressure: 29.91"   Gusts: 20mph
Location:  48.6°N, 93.4°W
Report Text: KINL 222155Z AUTO 19007G17KT 150V220 10SM FEW080 16/06 A2991 RMK AO2 SLP134 T01610061
Loading
Personal Weather Stations






























Interactive Weather Map
Tropical Storm Tracking
New forecast layout! Learn more

10-Day Weather Forecast

Advertisements
Track Severe Weather on mobile